Terminal Aerodrome Forecast
Issued by NWS

Home | Current Version | Previous Version | Text Only | Print | Product List | Glossary On
Versions: 1 2 3 4 5 6 7 8 9 10 11 12 13 14 15 16 17 18 19 20 21 22 23 24 25 26 27 28 29 30 31 32 33 34 35 36 37 38 39 40 41 42 43 44 45 46 47 48 49 50
000
FTUS46 KEKA 241758 AAA
TAFACV
TAF AMD
KACV 241758Z 2418/2518 VRB03KT 2SM BR BKN002
      TEMPO 2418/2420 1/2SM FG VV002
     FM242000 25005KT 4SM BR BKN002
      TEMPO 2420/2424 6SM BR SCT002
     FM250000 28005KT 1SM BR BKN002
      TEMPO 2500/2502 1/2SM FG VV002
     FM250200 13003KT 1/2SM FG VV002
     FM251700 27005KT 1SM BR BKN002=

USA.gov is the U.S. government's official web portal to all federal, state and local government web resources and services.